sensor_id;sensor_type;location;lat;lon;timestamp;P1;durP1;ratioP1;P2;durP2;ratioP2
51664;SDS011;37751;52.408;12.536;2022-10-18T00:01:59;11.98;;;6.55;;
51664;SDS011;37751;52.408;12.536;2022-10-18T00:04:25;13.32;;;6.82;;
51664;SDS011;37751;52.408;12.536;2022-10-18T00:06:52;11.65;;;6.15;;
51664;SDS011;37751;52.408;12.536;2022-10-18T00:09:18;11.13;;;5.88;;
51664;SDS011;37751;52.408;12.536;2022-10-18T00:11:45;15.10;;;6.03;;
51664;SDS011;37751;52.408;12.536;2022-10-18T00:14:11;19.00;;;6.57;;
51664;SDS011;37751;52.408;12.536;2022-10-18T00:16:37;13.73;;;6.70;;
51664;SDS011;37751;52.408;12.536;2022-10-18T00:19:04;10.70;;;6.13;;
51664;SDS011;37751;52.408;12.536;2022-10-18T00:21:30;9.65;;;6.15;;
51664;SDS011;37751;52.408;12.536;2022-10-18T00:23:57;13.18;;;6.95;;
51664;SDS011;37751;52.408;12.536;2022-10-18T00:26:25;14.55;;;6.78;;
51664;SDS011;37751;52.408;12.536;2022-10-18T00:28:54;10.60;;;6.53;;
51664;SDS011;37751;52.408;12.536;2022-10-18T00:31:23;11.88;;;7.35;;
51664;SDS011;37751;52.408;12.536;2022-10-18T00:34:00;13.95;;;7.88;;
51664;SDS011;37751;52.408;12.536;2022-10-18T00:36:30;10.85;;;6.75;;
51664;SDS011;37751;52.408;12.536;2022-10-18T00:38:59;13.15;;;7.55;;
51664;SDS011;37751;52.408;12.536;2022-10-18T00:41:28;10.50;;;7.72;;
51664;SDS011;37751;52.408;12.536;2022-10-18T00:44:00;13.77;;;7.72;;
51664;SDS011;37751;52.408;12.536;2022-10-18T00:46:54;11.90;;;7.35;;
51664;SDS011;37751;52.408;12.536;2022-10-18T00:49:26;14.90;;;8.07;;
51664;SDS011;37751;52.408;12.536;2022-10-18T00:51:59;12.27;;;7.55;;
51664;SDS011;37751;52.408;12.536;2022-10-18T00:54:30;10.10;;;6.97;;
51664;SDS011;37751;52.408;12.536;2022-10-18T00:56:58;12.82;;;7.53;;
51664;SDS011;37751;52.408;12.536;2022-10-18T00:59:25;9.15;;;7.97;;
51664;SDS011;37751;52.408;12.536;2022-10-18T01:01:53;15.63;;;7.97;;
51664;SDS011;37751;52.408;12.536;2022-10-18T01:04:19;11.90;;;8.65;;
51664;SDS011;37751;52.408;12.536;2022-10-18T01:09:34;10.23;;;7.93;;
51664;SDS011;37751;52.408;12.536;2022-10-18T01:12:22;11.45;;;8.35;;
51664;SDS011;37751;52.408;12.536;2022-10-18T01:15:15;11.93;;;7.85;;
51664;SDS011;37751;52.408;12.536;2022-10-18T01:21:04;15.25;;;8.32;;
51664;SDS011;37751;52.408;12.536;2022-10-18T01:23:39;16.63;;;9.15;;
51664;SDS011;37751;52.408;12.536;2022-10-18T01:26:29;16.08;;;9.48;;
51664;SDS011;37751;52.408;12.536;2022-10-18T01:29:10;11.85;;;9.20;;
51664;SDS011;37751;52.408;12.536;2022-10-18T01:31:44;16.25;;;9.25;;
51664;SDS011;37751;52.408;12.536;2022-10-18T01:34:13;10.55;;;8.43;;
51664;SDS011;37751;52.408;12.536;2022-10-18T01:36:44;18.85;;;9.82;;
51664;SDS011;37751;52.408;12.536;2022-10-18T01:39:14;13.23;;;8.98;;
51664;SDS011;37751;52.408;12.536;2022-10-18T01:41:44;13.98;;;8.98;;
51664;SDS011;37751;52.408;12.536;2022-10-18T01:44:17;12.68;;;8.95;;
51664;SDS011;37751;52.408;12.536;2022-10-18T01:46:46;11.35;;;8.95;;
51664;SDS011;37751;52.408;12.536;2022-10-18T01:49:13;14.32;;;9.77;;
51664;SDS011;37751;52.408;12.536;2022-10-18T01:51:40;14.88;;;10.38;;
51664;SDS011;37751;52.408;12.536;2022-10-18T01:54:06;18.25;;;10.63;;
51664;SDS011;37751;52.408;12.536;2022-10-18T01:56:41;14.32;;;10.40;;
51664;SDS011;37751;52.408;12.536;2022-10-18T02:08:10;17.90;;;11.13;;
51664;SDS011;37751;52.408;12.536;2022-10-18T02:11:04;12.65;;;10.75;;
51664;SDS011;37751;52.408;12.536;2022-10-18T02:13:36;15.02;;;10.90;;
51664;SDS011;37751;52.408;12.536;2022-10-18T02:16:08;18.70;;;13.07;;
51664;SDS011;37751;52.408;12.536;2022-10-18T02:18:41;21.23;;;12.70;;
51664;SDS011;37751;52.408;12.536;2022-10-18T02:21:15;20.92;;;13.10;;
51664;SDS011;37751;52.408;12.536;2022-10-18T02:23:44;19.48;;;11.65;;
51664;SDS011;37751;52.408;12.536;2022-10-18T02:26:12;22.30;;;13.23;;
51664;SDS011;37751;52.408;12.536;2022-10-18T02:28:39;19.33;;;13.15;;
51664;SDS011;37751;52.408;12.536;2022-10-18T02:31:11;20.13;;;13.23;;
51664;SDS011;37751;52.408;12.536;2022-10-18T02:36:58;18.27;;;13.45;;
51664;SDS011;37751;52.408;12.536;2022-10-18T02:39:29;18.05;;;11.77;;
51664;SDS011;37751;52.408;12.536;2022-10-18T02:41:57;16.60;;;12.38;;
51664;SDS011;37751;52.408;12.536;2022-10-18T02:44:24;19.88;;;11.73;;
51664;SDS011;37751;52.408;12.536;2022-10-18T02:46:51;19.77;;;11.70;;
51664;SDS011;37751;52.408;12.536;2022-10-18T02:49:18;19.08;;;12.50;;
51664;SDS011;37751;52.408;12.536;2022-10-18T02:51:44;18.15;;;12.05;;
51664;SDS011;37751;52.408;12.536;2022-10-18T02:54:10;15.00;;;11.40;;
51664;SDS011;37751;52.408;12.536;2022-10-18T02:56:37;18.27;;;11.30;;
51664;SDS011;37751;52.408;12.536;2022-10-18T02:59:03;13.63;;;11.02;;
51664;SDS011;37751;52.408;12.536;2022-10-18T03:01:33;18.30;;;11.38;;
51664;SDS011;37751;52.408;12.536;2022-10-18T03:04:01;15.82;;;11.43;;
51664;SDS011;37751;52.408;12.536;2022-10-18T03:06:29;18.50;;;11.65;;
51664;SDS011;37751;52.408;12.536;2022-10-18T03:08:56;15.35;;;11.15;;
51664;SDS011;37751;52.408;12.536;2022-10-18T03:11:22;16.20;;;12.07;;
51664;SDS011;37751;52.408;12.536;2022-10-18T03:13:49;15.02;;;10.65;;
51664;SDS011;37751;52.408;12.536;2022-10-18T03:16:16;13.75;;;11.07;;
51664;SDS011;37751;52.408;12.536;2022-10-18T03:18:43;15.13;;;10.85;;
51664;SDS011;37751;52.408;12.536;2022-10-18T03:21:09;12.02;;;9.45;;
51664;SDS011;37751;52.408;12.536;2022-10-18T03:23:35;11.68;;;9.43;;
51664;SDS011;37751;52.408;12.536;2022-10-18T03:26:02;12.75;;;8.95;;
51664;SDS011;37751;52.408;12.536;2022-10-18T03:28:28;14.23;;;8.52;;
51664;SDS011;37751;52.408;12.536;2022-10-18T03:30:58;12.50;;;8.90;;
51664;SDS011;37751;52.408;12.536;2022-10-18T03:33:26;12.70;;;8.95;;
51664;SDS011;37751;52.408;12.536;2022-10-18T03:35:53;13.73;;;9.05;;
51664;SDS011;37751;52.408;12.536;2022-10-18T03:38:20;11.75;;;8.43;;
51664;SDS011;37751;52.408;12.536;2022-10-18T03:40:46;14.55;;;8.55;;
51664;SDS011;37751;52.408;12.536;2022-10-18T03:43:12;11.88;;;9.15;;
51664;SDS011;37751;52.408;12.536;2022-10-18T03:45:39;11.07;;;8.93;;
51664;SDS011;37751;52.408;12.536;2022-10-18T03:48:05;12.35;;;9.10;;
51664;SDS011;37751;52.408;12.536;2022-10-18T03:50:32;18.25;;;8.77;;
51664;SDS011;37751;52.408;12.536;2022-10-18T03:52:58;11.15;;;8.75;;
51664;SDS011;37751;52.408;12.536;2022-10-18T03:55:25;13.55;;;8.23;;
51664;SDS011;37751;52.408;12.536;2022-10-18T03:57:51;12.02;;;8.13;;
51664;SDS011;37751;52.408;12.536;2022-10-18T04:00:17;10.95;;;9.23;;
51664;SDS011;37751;52.408;12.536;2022-10-18T04:02:44;16.33;;;9.32;;
51664;SDS011;37751;52.408;12.536;2022-10-18T04:05:10;15.75;;;9.43;;
51664;SDS011;37751;52.408;12.536;2022-10-18T04:07:38;10.77;;;8.45;;
51664;SDS011;37751;52.408;12.536;2022-10-18T04:10:04;12.23;;;8.13;;
51664;SDS011;37751;52.408;12.536;2022-10-18T04:12:31;13.02;;;8.35;;
51664;SDS011;37751;52.408;12.536;2022-10-18T04:14:58;10.02;;;7.90;;
51664;SDS011;37751;52.408;12.536;2022-10-18T04:17:24;10.70;;;7.40;;
51664;SDS011;37751;52.408;12.536;2022-10-18T04:19:51;15.93;;;8.55;;
51664;SDS011;37751;52.408;12.536;2022-10-18T04:22:17;9.90;;;8.45;;
51664;SDS011;37751;52.408;12.536;2022-10-18T04:24:46;11.68;;;8.45;;
51664;SDS011;37751;52.408;12.536;2022-10-18T04:27:12;13.02;;;8.75;;
51664;SDS011;37751;52.408;12.536;2022-10-18T04:29:38;9.10;;;8.00;;
51664;SDS011;37751;52.408;12.536;2022-10-18T04:32:05;11.60;;;8.02;;
51664;SDS011;37751;52.408;12.536;2022-10-18T04:34:31;13.13;;;8.43;;
51664;SDS011;37751;52.408;12.536;2022-10-18T04:36:58;12.98;;;9.45;;
51664;SDS011;37751;52.408;12.536;2022-10-18T04:39:24;11.38;;;8.88;;
51664;SDS011;37751;52.408;12.536;2022-10-18T04:41:50;15.15;;;8.77;;
51664;SDS011;37751;52.408;12.536;2022-10-18T04:44:17;16.95;;;9.13;;
51664;SDS011;37751;52.408;12.536;2022-10-18T04:46:43;14.00;;;9.63;;
51664;SDS011;37751;52.408;12.536;2022-10-18T04:49:10;17.20;;;8.90;;
51664;SDS011;37751;52.408;12.536;2022-10-18T04:51:36;14.68;;;9.43;;
51664;SDS011;37751;52.408;12.536;2022-10-18T04:54:03;13.75;;;8.90;;
51664;SDS011;37751;52.408;12.536;2022-10-18T04:56:29;12.25;;;8.70;;
51664;SDS011;37751;52.408;12.536;2022-10-18T04:58:56;13.40;;;8.50;;
51664;SDS011;37751;52.408;12.536;2022-10-18T05:01:23;14.07;;;8.73;;
51664;SDS011;37751;52.408;12.536;2022-10-18T05:03:51;13.15;;;8.38;;
51664;SDS011;37751;52.408;12.536;2022-10-18T05:06:19;18.95;;;9.30;;
51664;SDS011;37751;52.408;12.536;2022-10-18T05:08:46;15.35;;;9.27;;
51664;SDS011;37751;52.408;12.536;2022-10-18T05:11:12;15.35;;;9.82;;
51664;SDS011;37751;52.408;12.536;2022-10-18T05:13:39;18.40;;;10.15;;
51664;SDS011;37751;52.408;12.536;2022-10-18T05:16:05;20.08;;;10.07;;
51664;SDS011;37751;52.408;12.536;2022-10-18T05:18:32;14.07;;;9.45;;
51664;SDS011;37751;52.408;12.536;2022-10-18T05:20:58;17.02;;;9.50;;
51664;SDS011;37751;52.408;12.536;2022-10-18T05:23:25;18.25;;;9.73;;
51664;SDS011;37751;52.408;12.536;2022-10-18T05:25:51;16.88;;;9.55;;
51664;SDS011;37751;52.408;12.536;2022-10-18T05:28:17;15.63;;;9.90;;
51664;SDS011;37751;52.408;12.536;2022-10-18T05:31:05;24.15;;;14.77;;
51664;SDS011;37751;52.408;12.536;2022-10-18T05:33:32;17.38;;;12.05;;
51664;SDS011;37751;52.408;12.536;2022-10-18T05:35:59;19.10;;;11.30;;
51664;SDS011;37751;52.408;12.536;2022-10-18T05:38:25;16.13;;;10.77;;
51664;SDS011;37751;52.408;12.536;2022-10-18T05:40:52;14.90;;;10.40;;
51664;SDS011;37751;52.408;12.536;2022-10-18T05:43:18;16.08;;;11.00;;
51664;SDS011;37751;52.408;12.536;2022-10-18T05:45:48;18.42;;;11.23;;
51664;SDS011;37751;52.408;12.536;2022-10-18T05:48:15;16.65;;;10.60;;
51664;SDS011;37751;52.408;12.536;2022-10-18T05:50:42;15.93;;;10.70;;
51664;SDS011;37751;52.408;12.536;2022-10-18T05:53:09;17.67;;;10.35;;
51664;SDS011;37751;52.408;12.536;2022-10-18T05:56:02;17.02;;;10.40;;
51664;SDS011;37751;52.408;12.536;2022-10-18T05:58:28;19.83;;;11.88;;
51664;SDS011;37751;52.408;12.536;2022-10-18T06:00:58;19.50;;;11.20;;
51664;SDS011;37751;52.408;12.536;2022-10-18T06:03:26;15.45;;;10.85;;
51664;SDS011;37751;52.408;12.536;2022-10-18T06:05:57;19.33;;;10.98;;
51664;SDS011;37751;52.408;12.536;2022-10-18T06:08:25;14.18;;;11.18;;
51664;SDS011;37751;52.408;12.536;2022-10-18T06:10:52;18.13;;;12.48;;
51664;SDS011;37751;52.408;12.536;2022-10-18T06:13:18;15.82;;;11.07;;
51664;SDS011;37751;52.408;12.536;2022-10-18T06:15:45;16.40;;;11.75;;
51664;SDS011;37751;52.408;12.536;2022-10-18T06:18:11;17.83;;;12.05;;
51664;SDS011;37751;52.408;12.536;2022-10-18T06:20:38;20.15;;;11.68;;
51664;SDS011;37751;52.408;12.536;2022-10-18T06:23:04;18.70;;;12.25;;
51664;SDS011;37751;52.408;12.536;2022-10-18T06:25:31;20.95;;;12.10;;
51664;SDS011;37751;52.408;12.536;2022-10-18T06:27:58;16.80;;;12.35;;
51664;SDS011;37751;52.408;12.536;2022-10-18T06:30:24;16.95;;;11.48;;
51664;SDS011;37751;52.408;12.536;2022-10-18T06:32:50;17.45;;;12.15;;
51664;SDS011;37751;52.408;12.536;2022-10-18T06:35:17;22.52;;;12.95;;
51664;SDS011;37751;52.408;12.536;2022-10-18T06:37:43;17.65;;;12.93;;
51664;SDS011;37751;52.408;12.536;2022-10-18T06:40:09;28.75;;;12.35;;
51664;SDS011;37751;52.408;12.536;2022-10-18T06:42:36;18.17;;;10.65;;
51664;SDS011;37751;52.408;12.536;2022-10-18T06:45:02;16.10;;;9.00;;
51664;SDS011;37751;52.408;12.536;2022-10-18T06:47:29;14.15;;;9.35;;
51664;SDS011;37751;52.408;12.536;2022-10-18T06:49:55;15.55;;;9.90;;
51664;SDS011;37751;52.408;12.536;2022-10-18T06:52:22;17.92;;;10.23;;
51664;SDS011;37751;52.408;12.536;2022-10-18T06:54:50;19.77;;;10.48;;
51664;SDS011;37751;52.408;12.536;2022-10-18T06:57:18;11.32;;;9.80;;
51664;SDS011;37751;52.408;12.536;2022-10-18T06:59:45;12.57;;;10.38;;
51664;SDS011;37751;52.408;12.536;2022-10-18T07:02:13;16.10;;;11.18;;
51664;SDS011;37751;52.408;12.536;2022-10-18T07:04:42;14.95;;;10.52;;
51664;SDS011;37751;52.408;12.536;2022-10-18T07:07:08;15.88;;;11.35;;
51664;SDS011;37751;52.408;12.536;2022-10-18T07:09:34;17.63;;;11.18;;
51664;SDS011;37751;52.408;12.536;2022-10-18T07:12:01;18.83;;;11.70;;
51664;SDS011;37751;52.408;12.536;2022-10-18T07:14:27;21.88;;;11.43;;
51664;SDS011;37751;52.408;12.536;2022-10-18T07:16:57;16.88;;;12.95;;
51664;SDS011;37751;52.408;12.536;2022-10-18T07:19:24;16.73;;;12.88;;
51664;SDS011;37751;52.408;12.536;2022-10-18T07:21:50;19.08;;;13.23;;
51664;SDS011;37751;52.408;12.536;2022-10-18T07:24:17;18.50;;;13.48;;
51664;SDS011;37751;52.408;12.536;2022-10-18T07:26:43;19.63;;;13.05;;
51664;SDS011;37751;52.408;12.536;2022-10-18T07:29:10;18.08;;;12.55;;
51664;SDS011;37751;52.408;12.536;2022-10-18T07:31:37;19.02;;;12.45;;
51664;SDS011;37751;52.408;12.536;2022-10-18T07:34:04;18.75;;;13.80;;
51664;SDS011;37751;52.408;12.536;2022-10-18T07:36:32;19.63;;;13.60;;
51664;SDS011;37751;52.408;12.536;2022-10-18T07:38:59;20.15;;;13.27;;
51664;SDS011;37751;52.408;12.536;2022-10-18T07:41:25;27.25;;;14.00;;
51664;SDS011;37751;52.408;12.536;2022-10-18T07:43:52;26.35;;;14.98;;
51664;SDS011;37751;52.408;12.536;2022-10-18T07:46:19;21.42;;;13.48;;
51664;SDS011;37751;52.408;12.536;2022-10-18T07:48:46;22.25;;;14.52;;
51664;SDS011;37751;52.408;12.536;2022-10-18T07:51:13;23.90;;;14.25;;
51664;SDS011;37751;52.408;12.536;2022-10-18T07:53:40;24.95;;;14.70;;
51664;SDS011;37751;52.408;12.536;2022-10-18T07:56:08;19.30;;;14.10;;
51664;SDS011;37751;52.408;12.536;2022-10-18T07:58:43;18.70;;;14.45;;
51664;SDS011;37751;52.408;12.536;2022-10-18T08:01:11;23.02;;;14.80;;
51664;SDS011;37751;52.408;12.536;2022-10-18T08:03:38;21.70;;;13.70;;
51664;SDS011;37751;52.408;12.536;2022-10-18T08:06:07;17.52;;;13.13;;
51664;SDS011;37751;52.408;12.536;2022-10-18T08:08:35;23.33;;;13.32;;
51664;SDS011;37751;52.408;12.536;2022-10-18T08:11:04;19.40;;;12.70;;
51664;SDS011;37751;52.408;12.536;2022-10-18T08:13:33;21.52;;;13.05;;
51664;SDS011;37751;52.408;12.536;2022-10-18T08:16:00;21.73;;;12.80;;
51664;SDS011;37751;52.408;12.536;2022-10-18T08:18:28;19.98;;;12.70;;
51664;SDS011;37751;52.408;12.536;2022-10-18T08:20:54;22.65;;;12.57;;
51664;SDS011;37751;52.408;12.536;2022-10-18T08:23:20;20.70;;;12.32;;
51664;SDS011;37751;52.408;12.536;2022-10-18T08:25:47;18.02;;;12.55;;
51664;SDS011;37751;52.408;12.536;2022-10-18T08:28:13;20.33;;;12.50;;
51664;SDS011;37751;52.408;12.536;2022-10-18T08:30:40;24.85;;;13.40;;
51664;SDS011;37751;52.408;12.536;2022-10-18T08:33:06;20.15;;;13.15;;
51664;SDS011;37751;52.408;12.536;2022-10-18T08:35:32;22.40;;;13.48;;
51664;SDS011;37751;52.408;12.536;2022-10-18T08:37:59;21.13;;;13.90;;
51664;SDS011;37751;52.408;12.536;2022-10-18T08:40:26;21.88;;;12.77;;
51664;SDS011;37751;52.408;12.536;2022-10-18T08:45:28;23.80;;;15.00;;
51664;SDS011;37751;52.408;12.536;2022-10-18T08:48:12;21.05;;;13.38;;
51664;SDS011;37751;52.408;12.536;2022-10-18T08:50:47;22.42;;;13.80;;
51664;SDS011;37751;52.408;12.536;2022-10-18T08:53:26;17.98;;;12.20;;
51664;SDS011;37751;52.408;12.536;2022-10-18T08:56:06;19.60;;;12.40;;
51664;SDS011;37751;52.408;12.536;2022-10-18T08:58:40;17.17;;;12.60;;
51664;SDS011;37751;52.408;12.536;2022-10-18T09:06:30;19.70;;;14.02;;
51664;SDS011;37751;52.408;12.536;2022-10-18T09:12:12;16.77;;;12.48;;
51664;SDS011;37751;52.408;12.536;2022-10-18T09:15:01;25.02;;;12.93;;
51664;SDS011;37751;52.408;12.536;2022-10-18T09:20:18;20.60;;;13.88;;
51664;SDS011;37751;52.408;12.536;2022-10-18T09:22:51;19.13;;;12.32;;
51664;SDS011;37751;52.408;12.536;2022-10-18T09:25:21;17.35;;;12.55;;
51664;SDS011;37751;52.408;12.536;2022-10-18T09:28:04;21.05;;;13.05;;
51664;SDS011;37751;52.408;12.536;2022-10-18T09:30:59;16.95;;;12.82;;
51664;SDS011;37751;52.408;12.536;2022-10-18T09:36:24;20.35;;;12.95;;
51664;SDS011;37751;52.408;12.536;2022-10-18T09:38:54;16.25;;;12.73;;
51664;SDS011;37751;52.408;12.536;2022-10-18T09:44:24;17.92;;;11.48;;
51664;SDS011;37751;52.408;12.536;2022-10-18T09:49:51;20.95;;;12.25;;
51664;SDS011;37751;52.408;12.536;2022-10-18T09:52:26;17.20;;;11.95;;
51664;SDS011;37751;52.408;12.536;2022-10-18T09:55:02;23.30;;;10.48;;
51664;SDS011;37751;52.408;12.536;2022-10-18T09:57:39;16.70;;;11.88;;
51664;SDS011;37751;52.408;12.536;2022-10-18T10:00:13;16.40;;;11.15;;
51664;SDS011;37751;52.408;12.536;2022-10-18T10:02:43;15.13;;;11.00;;
51664;SDS011;37751;52.408;12.536;2022-10-18T10:05:13;16.05;;;10.38;;
51664;SDS011;37751;52.408;12.536;2022-10-18T10:07:41;14.75;;;9.70;;
51664;SDS011;37751;52.408;12.536;2022-10-18T10:10:16;13.00;;;9.43;;
51664;SDS011;37751;52.408;12.536;2022-10-18T10:12:46;12.73;;;9.35;;
51664;SDS011;37751;52.408;12.536;2022-10-18T10:15:23;15.30;;;9.25;;
51664;SDS011;37751;52.408;12.536;2022-10-18T10:18:02;16.95;;;9.38;;
51664;SDS011;37751;52.408;12.536;2022-10-18T10:20:45;13.48;;;9.85;;
51664;SDS011;37751;52.408;12.536;2022-10-18T10:23:20;16.90;;;9.63;;
51664;SDS011;37751;52.408;12.536;2022-10-18T10:26:36;14.27;;;9.90;;
51664;SDS011;37751;52.408;12.536;2022-10-18T10:28:52;15.70;;;9.40;;
51664;SDS011;37751;52.408;12.536;2022-10-18T10:34:01;13.90;;;9.85;;
51664;SDS011;37751;52.408;12.536;2022-10-18T10:36:31;11.90;;;7.75;;
51664;SDS011;37751;52.408;12.536;2022-10-18T10:39:06;14.00;;;9.77;;
51664;SDS011;37751;52.408;12.536;2022-10-18T10:41:38;17.67;;;10.27;;
51664;SDS011;37751;52.408;12.536;2022-10-18T10:44:16;18.10;;;9.90;;
51664;SDS011;37751;52.408;12.536;2022-10-18T10:46:45;11.57;;;8.75;;
51664;SDS011;37751;52.408;12.536;2022-10-18T10:49:16;12.13;;;9.63;;
51664;SDS011;37751;52.408;12.536;2022-10-18T10:52:05;13.35;;;9.98;;
51664;SDS011;37751;52.408;12.536;2022-10-18T10:54:47;14.07;;;8.93;;
51664;SDS011;37751;52.408;12.536;2022-10-18T11:04:40;14.85;;;9.65;;
51664;SDS011;37751;52.408;12.536;2022-10-18T11:20:37;13.10;;;11.55;;
51664;SDS011;37751;52.408;12.536;2022-10-18T11:23:09;17.45;;;13.05;;
51664;SDS011;37751;52.408;12.536;2022-10-18T11:43:12;19.65;;;12.73;;
51664;SDS011;37751;52.408;12.536;2022-10-18T11:45:57;16.27;;;12.05;;
51664;SDS011;37751;52.408;12.536;2022-10-18T11:54:41;16.10;;;11.00;;
51664;SDS011;37751;52.408;12.536;2022-10-18T11:57:21;15.18;;;11.65;;
51664;SDS011;37751;52.408;12.536;2022-10-18T12:03:10;16.45;;;10.85;;
51664;SDS011;37751;52.408;12.536;2022-10-18T12:05:52;18.33;;;12.82;;
51664;SDS011;37751;52.408;12.536;2022-10-18T12:08:38;19.38;;;13.77;;
51664;SDS011;37751;52.408;12.536;2022-10-18T12:11:12;18.63;;;13.27;;
51664;SDS011;37751;52.408;12.536;2022-10-18T12:13:47;17.23;;;13.63;;
51664;SDS011;37751;52.408;12.536;2022-10-18T12:16:18;18.33;;;13.73;;
51664;SDS011;37751;52.408;12.536;2022-10-18T12:19:11;23.45;;;14.63;;
51664;SDS011;37751;52.408;12.536;2022-10-18T12:21:51;21.67;;;14.50;;
51664;SDS011;37751;52.408;12.536;2022-10-18T12:24:19;20.85;;;13.48;;
51664;SDS011;37751;52.408;12.536;2022-10-18T12:26:50;21.67;;;13.45;;
51664;SDS011;37751;52.408;12.536;2022-10-18T12:32:17;16.90;;;13.30;;
51664;SDS011;37751;52.408;12.536;2022-10-18T12:34:56;21.00;;;11.88;;
51664;SDS011;37751;52.408;12.536;2022-10-18T12:40:24;16.38;;;12.38;;
51664;SDS011;37751;52.408;12.536;2022-10-18T12:43:16;17.40;;;11.75;;
51664;SDS011;37751;52.408;12.536;2022-10-18T12:45:53;16.35;;;11.15;;
51664;SDS011;37751;52.408;12.536;2022-10-18T12:48:26;17.58;;;10.57;;
51664;SDS011;37751;52.408;12.536;2022-10-18T12:51:16;22.05;;;12.80;;
51664;SDS011;37751;52.408;12.536;2022-10-18T12:53:45;19.63;;;10.80;;
51664;SDS011;37751;52.408;12.536;2022-10-18T13:04:50;14.52;;;8.82;;
51664;SDS011;37751;52.408;12.536;2022-10-18T13:07:15;13.45;;;8.70;;
51664;SDS011;37751;52.408;12.536;2022-10-18T13:13:17;12.57;;;7.35;;
51664;SDS011;37751;52.408;12.536;2022-10-18T13:16:09;11.00;;;7.10;;
51664;SDS011;37751;52.408;12.536;2022-10-18T13:21:39;13.23;;;7.88;;
51664;SDS011;37751;52.408;12.536;2022-10-18T13:24:18;15.38;;;8.32;;
51664;SDS011;37751;52.408;12.536;2022-10-18T13:27:00;16.98;;;9.43;;
51664;SDS011;37751;52.408;12.536;2022-10-18T13:30:10;11.38;;;7.57;;
51664;SDS011;37751;52.408;12.536;2022-10-18T13:32:55;12.60;;;8.77;;
51664;SDS011;37751;52.408;12.536;2022-10-18T13:41:09;15.23;;;8.40;;
51664;SDS011;37751;52.408;12.536;2022-10-18T13:46:19;11.63;;;8.52;;
51664;SDS011;37751;52.408;12.536;2022-10-18T13:48:48;20.17;;;9.95;;
51664;SDS011;37751;52.408;12.536;2022-10-18T13:54:12;12.70;;;7.22;;
51664;SDS011;37751;52.408;12.536;2022-10-18T13:56:44;15.77;;;8.15;;
51664;SDS011;37751;52.408;12.536;2022-10-18T13:59:34;13.85;;;8.30;;
51664;SDS011;37751;52.408;12.536;2022-10-18T14:02:33;13.68;;;7.63;;
51664;SDS011;37751;52.408;12.536;2022-10-18T14:08:28;16.55;;;6.18;;
51664;SDS011;37751;52.408;12.536;2022-10-18T14:11:01;13.00;;;6.18;;
51664;SDS011;37751;52.408;12.536;2022-10-18T14:13:53;13.98;;;7.28;;
51664;SDS011;37751;52.408;12.536;2022-10-18T14:16:29;16.10;;;7.03;;
51664;SDS011;37751;52.408;12.536;2022-10-18T14:21:55;14.90;;;7.35;;
51664;SDS011;37751;52.408;12.536;2022-10-18T14:24:29;13.52;;;7.45;;
51664;SDS011;37751;52.408;12.536;2022-10-18T14:27:08;15.98;;;6.95;;
51664;SDS011;37751;52.408;12.536;2022-10-18T14:29:41;12.43;;;7.50;;
51664;SDS011;37751;52.408;12.536;2022-10-18T14:32:09;12.32;;;6.43;;
51664;SDS011;37751;52.408;12.536;2022-10-18T14:34:44;11.27;;;6.70;;
51664;SDS011;37751;52.408;12.536;2022-10-18T14:37:20;14.07;;;7.28;;
51664;SDS011;37751;52.408;12.536;2022-10-18T14:39:54;11.70;;;7.20;;
51664;SDS011;37751;52.408;12.536;2022-10-18T14:42:22;11.68;;;6.68;;
51664;SDS011;37751;52.408;12.536;2022-10-18T14:44:50;16.80;;;7.05;;
51664;SDS011;37751;52.408;12.536;2022-10-18T14:47:22;15.52;;;5.85;;
51664;SDS011;37751;52.408;12.536;2022-10-18T14:49:53;12.05;;;6.47;;
51664;SDS011;37751;52.408;12.536;2022-10-18T14:52:22;12.48;;;6.97;;
51664;SDS011;37751;52.408;12.536;2022-10-18T14:54:58;12.52;;;7.18;;
51664;SDS011;37751;52.408;12.536;2022-10-18T14:57:29;15.43;;;8.63;;
51664;SDS011;37751;52.408;12.536;2022-10-18T15:00:00;15.63;;;7.18;;
51664;SDS011;37751;52.408;12.536;2022-10-18T15:02:31;14.55;;;7.85;;
51664;SDS011;37751;52.408;12.536;2022-10-18T15:05:04;14.93;;;7.35;;
51664;SDS011;37751;52.408;12.536;2022-10-18T15:07:34;16.23;;;7.57;;
51664;SDS011;37751;52.408;12.536;2022-10-18T15:10:01;18.65;;;7.68;;
51664;SDS011;37751;52.408;12.536;2022-10-18T15:12:29;13.88;;;7.38;;
51664;SDS011;37751;52.408;12.536;2022-10-18T15:15:06;13.98;;;7.45;;
51664;SDS011;37751;52.408;12.536;2022-10-18T15:17:38;15.45;;;7.40;;
51664;SDS011;37751;52.408;12.536;2022-10-18T15:20:22;16.52;;;9.77;;
51664;SDS011;37751;52.408;12.536;2022-10-18T15:22:51;19.88;;;9.32;;
51664;SDS011;37751;52.408;12.536;2022-10-18T15:25:22;17.60;;;9.07;;
51664;SDS011;37751;52.408;12.536;2022-10-18T15:27:56;18.30;;;8.80;;
51664;SDS011;37751;52.408;12.536;2022-10-18T15:30:25;17.63;;;9.13;;
51664;SDS011;37751;52.408;12.536;2022-10-18T15:32:54;15.50;;;8.13;;
51664;SDS011;37751;52.408;12.536;2022-10-18T15:35:23;13.60;;;8.98;;
51664;SDS011;37751;52.408;12.536;2022-10-18T15:37:55;16.85;;;8.40;;
51664;SDS011;37751;52.408;12.536;2022-10-18T15:40:32;21.42;;;8.73;;
51664;SDS011;37751;52.408;12.536;2022-10-18T15:43:04;21.10;;;8.40;;
51664;SDS011;37751;52.408;12.536;2022-10-18T15:48:25;16.52;;;9.05;;
51664;SDS011;37751;52.408;12.536;2022-10-18T15:50:54;22.02;;;8.85;;
51664;SDS011;37751;52.408;12.536;2022-10-18T15:53:23;15.32;;;8.52;;
51664;SDS011;37751;52.408;12.536;2022-10-18T15:58:49;13.85;;;8.43;;
51664;SDS011;37751;52.408;12.536;2022-10-18T16:01:17;17.67;;;7.93;;
51664;SDS011;37751;52.408;12.536;2022-10-18T16:03:47;14.68;;;7.90;;
51664;SDS011;37751;52.408;12.536;2022-10-18T16:06:16;12.95;;;8.60;;
51664;SDS011;37751;52.408;12.536;2022-10-18T16:08:48;12.70;;;7.70;;
51664;SDS011;37751;52.408;12.536;2022-10-18T16:11:17;21.90;;;11.00;;
51664;SDS011;37751;52.408;12.536;2022-10-18T16:13:48;29.27;;;12.30;;
51664;SDS011;37751;52.408;12.536;2022-10-18T16:16:19;29.95;;;12.35;;
51664;SDS011;37751;52.408;12.536;2022-10-18T16:18:47;24.83;;;10.90;;
51664;SDS011;37751;52.408;12.536;2022-10-18T16:21:18;19.42;;;8.38;;
51664;SDS011;37751;52.408;12.536;2022-10-18T16:23:47;16.58;;;7.03;;
51664;SDS011;37751;52.408;12.536;2022-10-18T16:26:14;22.08;;;8.10;;
51664;SDS011;37751;52.408;12.536;2022-10-18T16:28:42;16.33;;;8.25;;
51664;SDS011;37751;52.408;12.536;2022-10-18T16:31:13;19.65;;;7.18;;
51664;SDS011;37751;52.408;12.536;2022-10-18T16:33:44;17.85;;;7.38;;
51664;SDS011;37751;52.408;12.536;2022-10-18T16:36:12;14.07;;;7.82;;
51664;SDS011;37751;52.408;12.536;2022-10-18T16:38:40;16.77;;;7.95;;
51664;SDS011;37751;52.408;12.536;2022-10-18T16:41:08;16.70;;;8.00;;
51664;SDS011;37751;52.408;12.536;2022-10-18T16:43:35;11.52;;;7.10;;
51664;SDS011;37751;52.408;12.536;2022-10-18T16:46:03;23.52;;;10.73;;
51664;SDS011;37751;52.408;12.536;2022-10-18T16:48:30;18.98;;;8.93;;
51664;SDS011;37751;52.408;12.536;2022-10-18T16:50:56;17.17;;;8.82;;
51664;SDS011;37751;52.408;12.536;2022-10-18T16:53:23;23.42;;;9.38;;